createdAt,value
2023-03-13T00:01:56.929Z,13.18
2023-03-13T00:04:23.751Z,13.20
2023-03-13T00:06:50.577Z,13.08
2023-03-13T00:09:17.078Z,13.20
2023-03-13T00:11:45.909Z,13.27
2023-03-13T00:14:12.448Z,13.34
2023-03-13T00:16:39.728Z,12.94
2023-03-13T00:19:07.506Z,13.33
2023-03-13T00:21:35.052Z,12.58
2023-03-13T00:24:02.169Z,12.60
2023-03-13T00:26:29.491Z,13.18
2023-03-13T00:28:56.093Z,13.53
2023-03-13T00:31:27.834Z,13.49
2023-03-13T00:33:55.923Z,12.58
2023-03-13T00:36:24.479Z,12.60
2023-03-13T00:38:51.911Z,13.09
2023-03-13T00:41:20.719Z,12.63
2023-03-13T00:43:48.291Z,13.08
2023-03-13T00:46:16.358Z,13.51
2023-03-13T00:48:43.654Z,12.94
2023-03-13T00:51:10.209Z,13.16
2023-03-13T00:53:37.086Z,12.89
2023-03-13T00:56:05.635Z,12.76
2023-03-13T00:58:34.469Z,12.86
2023-03-13T01:01:10.818Z,12.80
2023-03-13T01:03:38.045Z,12.85
2023-03-13T01:06:06.579Z,13.10
2023-03-13T01:08:35.045Z,13.08
2023-03-13T01:11:03.397Z,13.30
2023-03-13T01:13:31.281Z,12.82
2023-03-13T01:15:58.216Z,12.99
2023-03-13T01:18:25.724Z,13.22
2023-03-13T01:20:52.893Z,13.01
2023-03-13T01:23:19.922Z,12.85
2023-03-13T01:25:46.879Z,13.07
2023-03-13T01:28:13.634Z,13.07
2023-03-13T01:30:41.778Z,12.81
2023-03-13T01:33:08.726Z,12.86
2023-03-13T01:35:35.449Z,13.35
2023-03-13T01:38:02.169Z,13.36
2023-03-13T01:40:28.818Z,13.17
2023-03-13T01:42:57.130Z,12.82
2023-03-13T01:45:42.548Z,12.80
2023-03-13T01:48:08.854Z,12.99
2023-03-13T01:50:35.533Z,12.86
2023-03-13T01:53:02.109Z,13.20
2023-03-13T01:55:28.571Z,12.86
2023-03-13T01:57:55.145Z,13.30
2023-03-13T02:00:25.576Z,13.11
2023-03-13T02:02:54.593Z,13.30
2023-03-13T02:05:23.140Z,12.91
2023-03-13T02:07:55.507Z,13.60
2023-03-13T02:10:23.727Z,13.46
2023-03-13T02:12:51.393Z,12.81
2023-03-13T02:15:19.818Z,12.80
2023-03-13T02:17:48.410Z,12.56
2023-03-13T02:20:16.632Z,12.45
2023-03-13T02:22:55.543Z,12.79
2023-03-13T02:25:25.608Z,12.73
2023-03-13T02:27:55.781Z,12.69
2023-03-13T02:30:22.324Z,12.88
2023-03-13T02:32:49.186Z,12.85
2023-03-13T02:35:18.319Z,12.67
2023-03-13T02:37:47.025Z,12.30
2023-03-13T02:40:17.332Z,12.37
2023-03-13T02:42:46.120Z,12.57
2023-03-13T02:45:17.192Z,12.20
2023-03-13T02:47:44.108Z,12.41
2023-03-13T02:50:12.618Z,12.75
2023-03-13T02:52:43.471Z,12.53
2023-03-13T02:55:12.541Z,12.56
2023-03-13T02:57:39.427Z,12.63
2023-03-13T03:00:07.323Z,13.00
2023-03-13T03:02:35.001Z,13.03
2023-03-13T03:05:01.875Z,12.42
2023-03-13T03:07:29.979Z,12.91
2023-03-13T03:09:56.875Z,12.89
2023-03-13T03:12:23.688Z,12.77
2023-03-13T03:14:50.371Z,12.33
2023-03-13T03:17:19.165Z,12.32
2023-03-13T03:19:46.036Z,12.11
2023-03-13T03:22:14.467Z,12.34
2023-03-13T03:24:41.108Z,12.53
2023-03-13T03:27:07.703Z,12.10
2023-03-13T03:29:34.252Z,12.51
2023-03-13T03:32:01.474Z,12.59
2023-03-13T03:34:28.253Z,12.26
2023-03-13T03:36:54.761Z,12.25
2023-03-13T03:39:21.567Z,12.10
2023-03-13T03:41:48.552Z,12.49
2023-03-13T03:44:16.524Z,12.77
2023-03-13T03:46:43.393Z,12.56
2023-03-13T03:49:10.825Z,12.50
2023-03-13T03:51:37.717Z,12.47
2023-03-13T03:54:04.343Z,12.63
2023-03-13T03:56:31.706Z,12.93
2023-03-13T03:58:59.014Z,12.69
2023-03-13T04:01:25.723Z,12.51
2023-03-13T04:03:52.567Z,12.90
2023-03-13T04:06:19.773Z,12.50
2023-03-13T04:08:46.710Z,12.45
2023-03-13T04:11:13.574Z,12.41
2023-03-13T04:13:42.189Z,12.57
2023-03-13T04:16:09.666Z,12.71
2023-03-13T04:18:36.562Z,12.43
2023-03-13T04:21:04.213Z,12.28
2023-03-13T04:23:30.759Z,12.57
2023-03-13T04:25:57.306Z,12.66
2023-03-13T04:28:23.803Z,12.48
2023-03-13T04:30:50.593Z,12.38
2023-03-13T04:33:18.031Z,12.68
2023-03-13T04:35:45.784Z,12.14
2023-03-13T04:38:12.164Z,12.13
2023-03-13T04:40:40.024Z,12.43
2023-03-13T04:43:06.791Z,12.47
2023-03-13T04:45:33.572Z,12.23
2023-03-13T04:48:03.324Z,12.39
2023-03-13T04:50:30.183Z,12.03
2023-03-13T04:52:56.973Z,12.23
2023-03-13T04:55:23.849Z,12.73
2023-03-13T04:57:50.741Z,12.79
2023-03-13T05:00:17.644Z,12.52
2023-03-13T05:02:44.224Z,12.47
2023-03-13T05:05:10.659Z,12.50
2023-03-13T05:07:38.459Z,12.24
2023-03-13T05:10:05.164Z,12.57
2023-03-13T05:12:32.321Z,12.74
2023-03-13T05:14:58.762Z,12.43
2023-03-13T05:17:25.212Z,12.25
2023-03-13T05:19:52.408Z,12.38
2023-03-13T05:22:19.225Z,12.15
2023-03-13T05:24:45.921Z,11.69
2023-03-13T05:27:12.509Z,12.55
2023-03-13T05:29:39.791Z,12.31
2023-03-13T05:32:07.819Z,12.62
2023-03-13T05:34:34.431Z,12.14
2023-03-13T05:37:01.611Z,12.55
2023-03-13T05:39:29.290Z,12.77
2023-03-13T05:41:55.903Z,13.11
2023-03-13T05:44:22.857Z,12.56
2023-03-13T05:46:49.727Z,12.62
2023-03-13T05:49:16.379Z,12.72
2023-03-13T05:51:43.468Z,12.70
2023-03-13T05:54:10.434Z,12.52
2023-03-13T05:56:38.564Z,12.22
2023-03-13T05:59:05.202Z,12.53
2023-03-13T06:01:32.125Z,12.02
2023-03-13T06:03:58.881Z,12.33
2023-03-13T06:06:26.707Z,12.43
2023-03-13T06:08:53.606Z,12.39
2023-03-13T06:11:22.289Z,12.05
2023-03-13T06:13:48.723Z,12.24
2023-03-13T06:16:15.212Z,12.24
2023-03-13T06:18:43.217Z,12.34
2023-03-13T06:21:10.531Z,12.28
2023-03-13T06:23:37.255Z,12.34
2023-03-13T06:26:04.216Z,12.33
2023-03-13T06:28:31.072Z,12.20
2023-03-13T06:31:01.495Z,12.19
2023-03-13T06:33:28.283Z,12.49
2023-03-13T06:35:57.066Z,12.79
2023-03-13T06:38:27.154Z,12.21
2023-03-13T06:40:54.132Z,12.31
2023-03-13T06:43:21.908Z,12.42
2023-03-13T06:45:48.937Z,12.43
2023-03-13T06:48:15.644Z,12.23
2023-03-13T06:50:44.181Z,12.40
2023-03-13T06:53:16.752Z,12.54
2023-03-13T06:55:44.650Z,12.58
2023-03-13T06:58:21.781Z,12.39
2023-03-13T07:00:55.745Z,12.68
2023-03-13T07:03:22.469Z,13.01
2023-03-13T07:05:48.841Z,12.86
2023-03-13T07:08:15.479Z,13.66
2023-03-13T07:10:43.092Z,13.39
2023-03-13T07:13:09.914Z,13.18
2023-03-13T07:15:36.387Z,13.93
2023-03-13T07:18:03.111Z,13.05
2023-03-13T07:20:30.356Z,12.91
2023-03-13T07:22:56.827Z,12.97
2023-03-13T07:25:23.504Z,13.45
2023-03-13T07:27:53.797Z,13.21
2023-03-13T07:30:20.593Z,13.10
2023-03-13T07:32:47.240Z,13.07
2023-03-13T07:35:14.402Z,13.35
2023-03-13T07:37:41.156Z,13.38
2023-03-13T07:40:09.266Z,13.81
2023-03-13T07:42:35.951Z,14.26
2023-03-13T07:45:02.823Z,14.18
2023-03-13T07:47:29.500Z,14.11
2023-03-13T07:49:56.514Z,14.02
2023-03-13T07:52:23.413Z,14.39
2023-03-13T07:54:49.866Z,13.89
2023-03-13T07:57:16.871Z,14.52
2023-03-13T07:59:43.651Z,14.22
2023-03-13T08:02:12.424Z,14.45
2023-03-13T08:04:38.974Z,14.48
2023-03-13T08:07:08.432Z,14.39
2023-03-13T08:09:35.302Z,14.10
2023-03-13T08:12:02.197Z,13.80
2023-03-13T08:14:29.615Z,14.14
2023-03-13T08:16:56.409Z,14.31
2023-03-13T08:19:23.317Z,15.16
2023-03-13T08:21:49.903Z,15.61
2023-03-13T08:24:16.385Z,15.60
2023-03-13T08:26:43.108Z,15.40
2023-03-13T08:29:10.897Z,15.21
2023-03-13T08:31:43.463Z,15.15
2023-03-13T08:34:11.760Z,15.19
2023-03-13T08:36:39.140Z,14.97
2023-03-13T08:39:13.460Z,14.86
2023-03-13T08:41:41.262Z,15.35
2023-03-13T08:44:08.358Z,15.41
2023-03-13T08:46:36.116Z,15.13
2023-03-13T08:49:03.967Z,15.21
2023-03-13T08:51:30.545Z,15.68
2023-03-13T08:53:57.083Z,14.76
2023-03-13T08:56:25.119Z,15.18
2023-03-13T08:58:52.392Z,15.18
2023-03-13T09:01:19.880Z,15.43
2023-03-13T09:03:46.465Z,15.15
2023-03-13T09:06:13.079Z,15.29
2023-03-13T09:08:39.983Z,14.90
2023-03-13T09:11:08.571Z,15.29
2023-03-13T09:13:37.201Z,15.47
2023-03-13T09:16:05.467Z,15.62
2023-03-13T09:18:32.508Z,15.15
2023-03-13T09:20:59.938Z,15.72
2023-03-13T09:23:26.972Z,15.80
2023-03-13T09:25:54.792Z,16.34
2023-03-13T09:28:21.431Z,16.21
2023-03-13T09:30:50.284Z,16.72
2023-03-13T09:33:17.488Z,16.45
2023-03-13T09:35:47.069Z,16.25
2023-03-13T09:38:13.967Z,16.91
2023-03-13T09:41:05.148Z,16.57
2023-03-13T09:43:38.428Z,16.05
2023-03-13T09:46:06.818Z,16.52
2023-03-13T09:48:37.843Z,16.90
2023-03-13T09:51:04.441Z,16.49
2023-03-13T09:53:46.867Z,15.65
2023-03-13T09:56:18.234Z,15.57
2023-03-13T09:59:11.668Z,15.89
2023-03-13T10:01:41.037Z,17.07
2023-03-13T10:04:19.954Z,16.97
2023-03-13T10:06:49.190Z,16.72
2023-03-13T10:09:17.775Z,17.22
2023-03-13T10:11:59.775Z,16.64
2023-03-13T10:14:29.786Z,16.91
2023-03-13T10:17:05.563Z,16.52
2023-03-13T10:19:34.618Z,16.80
2023-03-13T10:22:03.640Z,16.69
2023-03-13T10:24:43.033Z,17.12
2023-03-13T10:27:10.924Z,17.30
2023-03-13T10:29:38.693Z,17.01
2023-03-13T10:32:06.500Z,17.58
2023-03-13T10:34:51.954Z,16.73
2023-03-13T10:37:42.250Z,16.88
2023-03-13T10:40:23.276Z,16.77
2023-03-13T10:42:50.976Z,17.17
2023-03-13T10:45:19.069Z,17.28
2023-03-13T10:47:45.933Z,17.46
2023-03-13T10:50:21.177Z,17.65
2023-03-13T10:52:49.891Z,18.30
2023-03-13T10:55:19.558Z,17.77
2023-03-13T10:57:55.535Z,18.32
2023-03-13T11:00:44.026Z,18.54
2023-03-13T11:03:18.623Z,18.88
2023-03-13T11:05:54.011Z,18.49
2023-03-13T11:08:24.172Z,17.95
2023-03-13T11:10:53.829Z,18.58
2023-03-13T11:13:47.366Z,18.31
2023-03-13T11:16:29.570Z,18.39
2023-03-13T11:18:56.278Z,18.37
2023-03-13T11:21:37.120Z,18.48
2023-03-13T11:24:08.124Z,18.43
2023-03-13T11:27:04.218Z,17.88
2023-03-13T11:29:42.703Z,18.18
2023-03-13T11:32:17.653Z,18.98
2023-03-13T11:34:48.057Z,18.55
2023-03-13T11:37:16.098Z,19.27
2023-03-13T11:39:55.861Z,19.75
2023-03-13T11:42:42.061Z,19.55
2023-03-13T11:45:16.742Z,19.64
2023-03-13T11:47:43.523Z,20.24
2023-03-13T11:50:12.986Z,20.86
2023-03-13T11:52:39.660Z,20.20
2023-03-13T11:55:17.965Z,20.70
2023-03-13T11:58:03.784Z,21.31
2023-03-13T12:00:47.741Z,20.42
2023-03-13T12:03:17.483Z,20.43
2023-03-13T12:05:53.337Z,19.96
2023-03-13T12:08:28.092Z,20.66
2023-03-13T12:11:13.363Z,20.71
2023-03-13T12:13:42.606Z,21.25
2023-03-13T12:16:19.706Z,19.96
2023-03-13T12:18:46.670Z,20.53
2023-03-13T12:21:19.374Z,20.57
2023-03-13T12:24:09.720Z,21.00
2023-03-13T12:26:43.444Z,20.43
2023-03-13T12:29:22.916Z,19.52
2023-03-13T12:32:06.074Z,20.39
2023-03-13T12:34:52.464Z,20.00
2023-03-13T12:37:22.847Z,19.30
2023-03-13T12:39:58.163Z,20.53
2023-03-13T12:42:51.852Z,20.91
2023-03-13T12:45:19.622Z,21.39
2023-03-13T12:48:05.376Z,20.55
2023-03-13T12:50:43.336Z,20.73
2023-03-13T12:53:28.197Z,20.72
2023-03-13T12:56:03.984Z,20.73
2023-03-13T12:58:30.853Z,19.97
2023-03-13T13:01:02.019Z,21.15
2023-03-13T13:03:37.724Z,22.04
2023-03-13T13:06:06.626Z,21.56
2023-03-13T13:08:38.432Z,19.63
2023-03-13T13:11:24.421Z,20.19
2023-03-13T13:13:51.310Z,19.36
2023-03-13T13:16:20.660Z,18.82
2023-03-13T13:18:47.173Z,19.22
2023-03-13T13:21:17.014Z,20.44
2023-03-13T13:23:48.105Z,20.83
2023-03-13T13:26:27.057Z,20.07
2023-03-13T13:28:55.712Z,19.36
2023-03-13T13:31:40.940Z,19.69
2023-03-13T13:34:07.393Z,19.51
2023-03-13T13:36:41.012Z,19.81
2023-03-13T13:39:23.132Z,19.78
2023-03-13T13:41:50.860Z,19.59
2023-03-13T13:44:25.591Z,20.28
2023-03-13T13:46:53.871Z,19.64
2023-03-13T13:49:21.721Z,19.58
2023-03-13T13:52:04.354Z,20.60
2023-03-13T13:54:54.967Z,20.34
2023-03-13T13:57:26.961Z,20.14
2023-03-13T14:00:06.522Z,20.12
2023-03-13T14:02:37.261Z,20.17
2023-03-13T14:05:21.777Z,20.98
2023-03-13T14:07:53.071Z,19.99
2023-03-13T14:10:29.648Z,19.78
2023-03-13T14:12:58.785Z,19.91
2023-03-13T14:15:29.439Z,19.95
2023-03-13T14:18:00.561Z,19.65
2023-03-13T14:20:37.010Z,20.53
2023-03-13T14:23:06.203Z,19.79
2023-03-13T14:25:50.691Z,19.70
2023-03-13T14:28:17.177Z,20.43
2023-03-13T14:30:44.609Z,20.37
2023-03-13T14:33:12.056Z,20.14
2023-03-13T14:35:39.982Z,20.13
2023-03-13T14:38:25.954Z,20.11
2023-03-13T14:40:53.761Z,20.30
2023-03-13T14:43:35.190Z,19.88
2023-03-13T14:46:14.358Z,20.00
2023-03-13T14:48:41.913Z,20.05
2023-03-13T14:51:19.947Z,19.90
2023-03-13T14:54:13.183Z,20.05
2023-03-13T14:56:45.318Z,20.30
2023-03-13T14:59:20.165Z,19.48
2023-03-13T15:01:46.839Z,19.91
2023-03-13T15:04:13.942Z,19.75
2023-03-13T15:06:40.842Z,20.11
2023-03-13T15:09:15.949Z,19.92
2023-03-13T15:11:44.073Z,20.47
2023-03-13T15:14:30.004Z,20.37
2023-03-13T15:16:56.689Z,20.16
2023-03-13T15:19:23.257Z,20.37
2023-03-13T15:21:54.718Z,20.91
2023-03-13T15:24:21.184Z,20.55
2023-03-13T15:26:49.331Z,20.54
2023-03-13T15:29:18.234Z,20.43
2023-03-13T15:31:46.014Z,20.08
2023-03-13T15:34:14.335Z,20.49
2023-03-13T15:36:43.679Z,19.87
2023-03-13T15:39:23.293Z,20.33
2023-03-13T15:41:51.162Z,20.86
2023-03-13T15:44:18.617Z,21.07
2023-03-13T15:46:46.221Z,20.15
2023-03-13T15:49:16.412Z,20.22
2023-03-13T15:51:45.909Z,19.95
2023-03-13T15:54:12.939Z,20.38
2023-03-13T15:56:39.569Z,19.89
2023-03-13T15:59:11.960Z,19.45
2023-03-13T16:01:40.128Z,20.03
2023-03-13T16:04:07.364Z,20.10
2023-03-13T16:06:33.930Z,19.92
2023-03-13T16:09:01.290Z,19.37
2023-03-13T16:11:29.585Z,19.76
2023-03-13T16:13:57.798Z,20.35
2023-03-13T16:16:26.326Z,19.98
2023-03-13T16:18:53.794Z,19.93
2023-03-13T16:21:22.515Z,19.80
2023-03-13T16:23:49.923Z,19.41
2023-03-13T16:26:18.567Z,20.19
2023-03-13T16:28:46.656Z,19.72
2023-03-13T16:31:22.480Z,20.02
2023-03-13T16:33:53.639Z,20.39
2023-03-13T16:36:21.976Z,20.03
2023-03-13T16:38:49.619Z,19.89
2023-03-13T16:41:18.715Z,19.58
2023-03-13T16:43:45.822Z,19.45
2023-03-13T16:46:19.540Z,19.78
2023-03-13T16:48:47.060Z,19.49
2023-03-13T16:51:21.859Z,19.35
2023-03-13T16:53:49.389Z,19.90
2023-03-13T16:56:27.326Z,19.75
2023-03-13T16:58:55.757Z,19.55
2023-03-13T17:01:27.188Z,19.58
2023-03-13T17:03:56.620Z,19.53
2023-03-13T17:06:29.266Z,19.63
2023-03-13T17:08:56.630Z,20.29
2023-03-13T17:11:31.528Z,19.92
2023-03-13T17:13:59.773Z,19.69
2023-03-13T17:16:33.464Z,20.22
2023-03-13T17:19:02.021Z,19.96
2023-03-13T17:21:31.355Z,19.77
2023-03-13T17:23:59.681Z,20.00
2023-03-13T17:26:29.411Z,19.92
2023-03-13T17:28:57.249Z,19.58
2023-03-13T17:31:25.424Z,19.80
2023-03-13T17:33:52.250Z,18.76
2023-03-13T17:36:23.971Z,19.20
2023-03-13T17:38:52.674Z,19.63
2023-03-13T17:41:21.057Z,19.11
2023-03-13T17:43:48.707Z,19.21
2023-03-13T17:46:39.234Z,19.61
2023-03-13T17:49:07.813Z,20.18
2023-03-13T17:51:35.919Z,19.82
2023-03-13T17:54:03.751Z,20.30
2023-03-13T17:56:37.454Z,20.02
2023-03-13T17:59:06.989Z,19.84
2023-03-13T18:01:34.912Z,19.29
2023-03-13T18:04:02.463Z,20.21
2023-03-13T18:06:37.448Z,20.00
2023-03-13T18:09:08.806Z,19.98
2023-03-13T18:11:38.552Z,19.92
2023-03-13T18:14:06.159Z,19.72
2023-03-13T18:16:47.911Z,20.04
2023-03-13T18:19:16.876Z,19.69
2023-03-13T18:21:58.181Z,20.14
2023-03-13T18:24:24.976Z,20.03
2023-03-13T18:26:53.563Z,20.28
2023-03-13T18:29:26.881Z,19.45
2023-03-13T18:31:55.535Z,19.17
2023-03-13T18:34:28.976Z,20.02
2023-03-13T18:36:56.637Z,19.35
2023-03-13T18:39:23.965Z,19.94
2023-03-13T18:41:53.539Z,19.80
2023-03-13T18:44:21.361Z,19.85
2023-03-13T18:46:47.979Z,18.40
2023-03-13T18:49:21.437Z,18.83
2023-03-13T18:51:49.708Z,18.81
2023-03-13T18:54:18.464Z,19.11
2023-03-13T18:56:46.659Z,18.82
2023-03-13T18:59:19.591Z,18.87
2023-03-13T19:01:48.771Z,19.12
2023-03-13T19:04:15.865Z,18.49
2023-03-13T19:06:42.586Z,18.18
2023-03-13T19:09:41.558Z,18.23
2023-03-13T19:12:06.868Z,18.38
2023-03-13T19:14:34.580Z,18.09
2023-03-13T19:17:04.757Z,18.18
2023-03-13T19:19:32.477Z,17.73
2023-03-13T19:21:59.820Z,18.34
2023-03-13T19:24:27.741Z,17.50
2023-03-13T19:26:59.077Z,18.03
2023-03-13T19:29:28.244Z,18.21
2023-03-13T19:31:55.673Z,17.74
2023-03-13T19:34:23.976Z,18.38
2023-03-13T19:36:56.214Z,18.35
2023-03-13T19:39:25.654Z,18.85
2023-03-13T19:41:54.661Z,18.13
2023-03-13T19:44:22.001Z,17.78
2023-03-13T19:46:50.719Z,17.31
2023-03-13T19:49:19.476Z,17.38
2023-03-13T19:51:47.452Z,17.01
2023-03-13T19:54:18.314Z,17.81
2023-03-13T19:56:47.383Z,18.09
2023-03-13T19:59:18.514Z,16.70
2023-03-13T20:01:46.097Z,17.23
2023-03-13T20:04:13.018Z,17.25
2023-03-13T20:06:42.451Z,17.29
2023-03-13T20:09:14.921Z,18.11
2023-03-13T20:11:45.444Z,17.89
2023-03-13T20:14:12.523Z,17.08
2023-03-13T20:16:39.889Z,17.21
2023-03-13T20:19:06.875Z,17.60
2023-03-13T20:21:35.676Z,17.85
2023-03-13T20:24:03.667Z,16.94
2023-03-13T20:26:32.481Z,18.07
2023-03-13T20:29:00.573Z,18.02
2023-03-13T20:31:30.991Z,18.00
2023-03-13T20:33:59.098Z,17.61
2023-03-13T20:36:26.612Z,17.78
2023-03-13T20:38:53.629Z,17.66
2023-03-13T20:41:25.480Z,17.76
2023-03-13T20:43:53.074Z,17.74
2023-03-13T20:46:27.719Z,17.56
2023-03-13T20:48:55.186Z,16.87
2023-03-13T20:51:22.548Z,17.25
2023-03-13T20:53:49.753Z,17.27
2023-03-13T20:56:16.660Z,17.37
2023-03-13T20:58:44.143Z,17.21
2023-03-13T21:01:11.758Z,17.12
2023-03-13T21:03:39.683Z,16.84
2023-03-13T21:06:11.292Z,16.86
2023-03-13T21:08:44.975Z,17.39
2023-03-13T21:11:22.826Z,17.42
2023-03-13T21:13:50.220Z,17.14
2023-03-13T21:16:20.145Z,17.10
2023-03-13T21:18:47.207Z,16.96
2023-03-13T21:21:17.715Z,17.38
2023-03-13T21:23:47.564Z,16.85
2023-03-13T21:26:16.554Z,17.48
2023-03-13T21:28:44.168Z,17.05
2023-03-13T21:31:14.066Z,17.02
2023-03-13T21:33:42.020Z,16.48
2023-03-13T21:36:10.911Z,16.23
2023-03-13T21:38:39.615Z,16.77
2023-03-13T21:41:11.606Z,16.96
2023-03-13T21:43:40.416Z,17.33
2023-03-13T21:46:07.764Z,16.80
2023-03-13T21:48:35.058Z,16.68
2023-03-13T21:51:01.821Z,16.94
2023-03-13T21:53:31.105Z,16.84
2023-03-13T21:55:59.722Z,16.69
2023-03-13T21:58:45.589Z,16.87
2023-03-13T22:01:12.983Z,16.92
2023-03-13T22:03:39.970Z,16.34
2023-03-13T22:06:14.587Z,17.22
2023-03-13T22:08:43.519Z,17.24
2023-03-13T22:11:10.678Z,16.76
2023-03-13T22:13:44.203Z,16.88
2023-03-13T22:16:12.238Z,17.23
2023-03-13T22:18:40.600Z,17.15
2023-03-13T22:21:08.572Z,17.52
2023-03-13T22:23:36.669Z,17.87
2023-03-13T22:26:04.434Z,17.79
2023-03-13T22:28:32.260Z,17.69
2023-03-13T22:31:04.320Z,16.92
2023-03-13T22:33:34.664Z,17.08
2023-03-13T22:36:02.355Z,17.43
2023-03-13T22:38:30.418Z,17.48
2023-03-13T22:40:59.358Z,17.00
2023-03-13T22:43:27.685Z,17.40
2023-03-13T22:45:55.498Z,17.47
2023-03-13T22:48:23.563Z,17.48
2023-03-13T22:51:00.413Z,17.23
2023-03-13T22:53:27.760Z,17.34
2023-03-13T22:55:56.092Z,16.94
2023-03-13T22:58:23.276Z,17.29
2023-03-13T23:00:58.727Z,17.65
2023-03-13T23:03:26.301Z,17.01
2023-03-13T23:05:54.386Z,16.89
2023-03-13T23:08:22.129Z,17.40
2023-03-13T23:10:48.997Z,17.15
2023-03-13T23:13:20.347Z,17.13
2023-03-13T23:15:55.977Z,16.87
2023-03-13T23:18:24.577Z,17.15
2023-03-13T23:20:52.562Z,16.80
2023-03-13T23:23:20.176Z,16.88
2023-03-13T23:25:49.088Z,17.23
2023-03-13T23:28:16.803Z,16.44
2023-03-13T23:30:44.217Z,16.69
2023-03-13T23:33:14.516Z,16.65
2023-03-13T23:35:41.918Z,16.19
2023-03-13T23:38:28.633Z,17.17
2023-03-13T23:40:58.406Z,16.13
2023-03-13T23:43:31.928Z,16.85
2023-03-13T23:45:58.889Z,16.92
2023-03-13T23:48:27.137Z,16.94
2023-03-13T23:51:14.962Z,17.31
2023-03-13T23:53:42.832Z,17.18
2023-03-13T23:56:13.369Z,16.50
2023-03-13T23:58:41.126Z,16.44
